Time;durP1;ratioP1;P1;durP2;ratioP2;P2;SDS_P1;SDS_P2;PMS_P1;PMS_P2;Temp;Humidity;BMP_temperature;BMP_pressure;BME280_temperature;BME280_humidity;BME280_pressure;Samples;Min_cycle;Max_cycle;Signal;HPM_P1;HPM_P2
2024/04/07 00:00:48;;;;;;;2.20;0.88;;;20.00;86.60;;;;;;5069346;28;20077;-72
2024/04/07 00:03:14;;;;;;;2.22;1.08;;;19.90;86.70;;;;;;5071341;28;20445;-72
2024/04/07 00:05:40;;;;;;;1.52;1.10;;;19.80;87.40;;;;;;5074627;28;20040;-73
2024/04/07 00:08:05;;;;;;;3.03;0.90;;;19.70;87.70;;;;;;5073811;28;20036;-71
2024/04/07 00:10:31;;;;;;;3.45;1.73;;;19.60;87.70;;;;;;5078326;28;20197;-72
2024/04/07 00:12:57;;;;;;;2.40;1.20;;;19.50;88.90;;;;;;5070370;28;20501;-72
2024/04/07 00:15:22;;;;;;;6.18;0.95;;;19.40;87.90;;;;;;5068043;28;20706;-72
2024/04/07 00:17:49;;;;;;;1.17;1.08;;;19.30;88.70;;;;;;5067239;28;20079;-72
2024/04/07 00:20:14;;;;;;;17.00;3.17;;;19.10;89.50;;;;;;5076953;28;20040;-71
2024/04/07 00:22:40;;;;;;;1.73;0.95;;;18.90;90.30;;;;;;5072630;28;20048;-71
2024/04/07 00:25:06;;;;;;;1.55;1.15;;;18.90;90.10;;;;;;5075244;28;20032;-71
2024/04/07 00:27:32;;;;;;;4.57;1.38;;;18.70;90.30;;;;;;5073649;28;20031;-71
2024/04/07 00:29:57;;;;;;;1.95;1.27;;;18.70;90.00;;;;;;5063014;28;20043;-71
2024/04/07 00:32:23;;;;;;;6.63;1.25;;;18.60;90.00;;;;;;5067741;28;20032;-71
2024/04/07 00:34:50;;;;;;;4.90;1.23;;;18.60;89.80;;;;;;5070820;28;20511;-72
2024/04/07 00:37:16;;;;;;;1.85;1.13;;;18.50;90.10;;;;;;5066797;28;20071;-70
2024/04/07 00:39:42;;;;;;;5.07;1.08;;;18.30;90.50;;;;;;5062587;28;20028;-72
2024/04/07 00:42:09;;;;;;;4.30;1.70;;;18.30;90.50;;;;;;5059646;28;20606;-71
2024/04/07 00:44:36;;;;;;;2.63;1.10;;;18.20;90.40;;;;;;5062165;28;20040;-72
2024/04/07 00:47:02;;;;;;;2.10;1.20;;;18.10;90.80;;;;;;5063847;28;20515;-72
2024/04/07 00:49:28;;;;;;;2.05;1.10;;;18.00;90.70;;;;;;5061939;28;20036;-71
2024/04/07 00:51:54;;;;;;;1.60;1.02;;;18.00;90.90;;;;;;5061531;28;20024;-74
2024/04/07 00:54:22;;;;;;;4.45;1.15;;;18.00;90.80;;;;;;5064686;28;20490;-72
2024/04/07 00:56:48;;;;;;;2.10;0.90;;;17.90;91.30;;;;;;5061654;28;20041;-74
2024/04/07 00:59:13;;;;;;;3.47;0.98;;;17.80;91.10;;;;;;5067091;28;20029;-74
2024/04/07 01:01:39;;;;;;;2.83;1.15;;;17.70;91.20;;;;;;5065992;28;20044;-72
2024/04/07 01:04:05;;;;;;;2.10;1.30;;;17.70;91.40;;;;;;5064036;28;20037;-72
2024/04/07 01:06:31;;;;;;;2.60;1.40;;;17.60;91.80;;;;;;5057848;28;20459;-72
2024/04/07 01:08:57;;;;;;;1.85;1.10;;;17.50;91.80;;;;;;5067349;28;20129;-73
2024/04/07 01:11:29;;;;;;;2.03;0.90;;;17.50;92.20;;;;;;5065663;28;20539;-70
2024/04/07 01:13:55;;;;;;;3.28;1.25;;;17.40;92.00;;;;;;5065305;28;20033;-71
2024/04/07 01:16:22;;;;;;;1.92;1.15;;;17.40;92.60;;;;;;5062863;28;20040;-72
2024/04/07 01:18:47;;;;;;;3.53;1.42;;;17.30;92.40;;;;;;5068770;28;20021;-72
2024/04/07 01:21:14;;;;;;;3.75;1.10;;;17.30;92.70;;;;;;5062841;28;20036;-72
2024/04/07 01:23:39;;;;;;;2.40;1.30;;;17.20;92.40;;;;;;5064248;28;20032;-74
2024/04/07 01:26:05;;;;;;;3.22;1.10;;;17.10;92.70;;;;;;5060054;28;20036;-72
2024/04/07 01:28:31;;;;;;;3.75;1.17;;;17.10;92.20;;;;;;5064651;28;20032;-74
2024/04/07 01:30:56;;;;;;;4.13;0.98;;;17.10;92.00;;;;;;5056970;28;20071;-70
2024/04/07 01:33:22;;;;;;;1.20;0.93;;;17.20;92.20;;;;;;5061911;28;20049;-71
2024/04/07 01:35:48;;;;;;;4.30;1.02;;;17.20;91.80;;;;;;5065747;28;20032;-72
2024/04/07 01:38:14;;;;;;;1.52;1.08;;;17.20;91.70;;;;;;5062436;28;20428;-74
2024/04/07 01:40:40;;;;;;;3.15;1.08;;;17.20;91.10;;;;;;5068236;28;20696;-72
2024/04/07 01:43:06;;;;;;;2.60;1.30;;;17.40;91.00;;;;;;5068706;28;20501;-72
2024/04/07 01:45:31;;;;;;;3.65;1.02;;;17.40;90.70;;;;;;5063885;28;20025;-71
2024/04/07 01:47:57;;;;;;;2.22;1.00;;;17.50;90.30;;;;;;5066278;28;20072;-70
2024/04/07 01:50:23;;;;;;;0.90;0.70;;;17.70;90.20;;;;;;5064251;28;20043;-71
2024/04/07 01:52:49;;;;;;;3.75;0.90;;;17.70;90.10;;;;;;5060123;28;20120;-73
2024/04/07 01:55:14;;;;;;;1.70;0.90;;;17.70;90.00;;;;;;5070069;28;20052;-73
2024/04/07 01:57:40;;;;;;;1.92;0.75;;;17.80;89.80;;;;;;5056101;28;20606;-72
2024/04/07 02:00:07;;;;;;;3.72;0.90;;;17.90;89.50;;;;;;5062747;28;20028;-72
2024/04/07 02:02:36;;;;;;;3.60;1.17;;;17.90;89.40;;;;;;5063755;28;20048;-72
2024/04/07 02:05:02;;;;;;;4.35;1.05;;;18.00;89.10;;;;;;5060309;28;20068;-75
2024/04/07 02:07:28;;;;;;;1.50;0.63;;;18.20;88.70;;;;;;5064253;28;20067;-71
2024/04/07 02:09:53;;;;;;;3.78;1.10;;;18.30;88.50;;;;;;5067489;28;20040;-74
2024/04/07 02:12:19;;;;;;;2.47;0.95;;;18.40;88.00;;;;;;5064304;28;20028;-72
2024/04/07 02:14:45;;;;;;;5.05;0.82;;;18.50;87.70;;;;;;5059987;28;20138;-71
2024/04/07 02:17:11;;;;;;;2.25;1.02;;;18.60;87.80;;;;;;5059383;28;20102;-71
2024/04/07 02:19:37;;;;;;;1.10;0.90;;;18.60;87.40;;;;;;5056094;28;20632;-71
2024/04/07 02:22:04;;;;;;;3.55;1.20;;;18.70;87.00;;;;;;5064449;28;20471;-72
2024/04/07 02:24:29;;;;;;;2.72;1.10;;;18.80;86.90;;;;;;5067571;28;20105;-72
2024/04/07 02:26:55;;;;;;;2.35;1.00;;;18.80;86.80;;;;;;5071956;28;20045;-70
2024/04/07 02:29:21;;;;;;;3.20;1.05;;;18.90;86.50;;;;;;5061693;28;20501;-72
2024/04/07 02:31:47;;;;;;;3.03;0.95;;;18.90;86.30;;;;;;5058639;28;20037;-72
2024/04/07 02:34:13;;;;;;;2.60;0.82;;;18.90;86.20;;;;;;5066465;28;20086;-72
2024/04/07 02:36:39;;;;;;;2.92;1.02;;;19.00;86.20;;;;;;5069139;28;20409;-71
2024/04/07 02:39:09;;;;;;;3.85;0.80;;;19.00;85.90;;;;;;5067360;28;20485;-72
2024/04/07 02:41:38;;;;;;;1.90;0.90;;;19.10;85.90;;;;;;5066629;28;20064;-71
2024/04/07 02:44:04;;;;;;;3.97;1.00;;;19.10;86.00;;;;;;5062339;28;20032;-74
2024/04/07 02:49:15;;;;;;;2.28;1.00;;;19.10;85.60;;;;;;5065080;28;20035;-73
2024/04/07 02:51:41;;;;;;;1.92;0.98;;;19.10;85.80;;;;;;5076759;28;20031;-70
2024/04/07 02:54:06;;;;;;;3.25;0.85;;;19.20;85.70;;;;;;5070738;28;20399;-72
2024/04/07 02:56:32;;;;;;;2.15;1.25;;;19.20;85.50;;;;;;5071011;28;20040;-72
2024/04/07 02:58:58;;;;;;;5.47;0.98;;;19.20;85.90;;;;;;5064246;28;20040;-72
2024/04/07 03:01:23;;;;;;;2.72;0.80;;;19.20;85.90;;;;;;5062994;28;20175;-72
2024/04/07 03:03:50;;;;;;;3.38;1.23;;;19.20;85.40;;;;;;5067776;28;20035;-72
2024/04/07 03:06:16;;;;;;;6.13;1.00;;;19.20;85.90;;;;;;5067486;28;20421;-73
2024/04/07 03:08:41;;;;;;;1.15;0.82;;;19.20;85.70;;;;;;5077976;28;20524;-71
2024/04/07 03:11:07;;;;;;;4.15;1.40;;;19.20;85.70;;;;;;5068339;28;20024;-71
2024/04/07 03:13:34;;;;;;;2.08;1.00;;;19.20;86.60;;;;;;5073531;28;20041;-71
2024/04/07 03:16:00;;;;;;;1.92;0.65;;;19.20;86.70;;;;;;5065592;28;20020;-72
2024/04/07 03:18:25;;;;;;;2.53;1.67;;;19.10;87.00;;;;;;5059022;28;20062;-71
2024/04/07 03:20:52;;;;;;;2.50;1.00;;;19.10;88.00;;;;;;5063795;28;20489;-72
2024/04/07 03:23:18;;;;;;;2.00;1.40;;;19.00;87.10;;;;;;5065804;28;20042;-71
2024/04/07 03:25:43;;;;;;;1.23;0.90;;;19.00;86.60;;;;;;5059776;28;20032;-71
2024/04/07 03:28:09;;;;;;;2.22;1.15;;;19.00;86.50;;;;;;5066572;28;20111;-72
2024/04/07 03:30:36;;;;;;;1.48;0.90;;;19.00;86.40;;;;;;5065623;28;20086;-70
2024/04/07 03:33:02;;;;;;;1.60;1.00;;;19.00;86.50;;;;;;5071023;28;20044;-73
2024/04/07 03:35:29;;;;;;;3.28;1.20;;;19.00;86.60;;;;;;5067615;28;20032;-71
2024/04/07 03:37:54;;;;;;;3.10;1.20;;;18.90;87.10;;;;;;5065464;28;20452;-73
2024/04/07 03:40:20;;;;;;;1.75;0.98;;;18.90;86.60;;;;;;5060784;28;20094;-70
2024/04/07 03:42:45;;;;;;;3.30;1.08;;;18.90;86.80;;;;;;5058118;28;20036;-72
2024/04/07 03:45:11;;;;;;;3.05;1.05;;;18.90;86.60;;;;;;5060857;28;20032;-72
2024/04/07 03:47:37;;;;;;;4.18;1.30;;;18.90;86.70;;;;;;5068079;28;20058;-71
2024/04/07 03:50:03;;;;;;;2.05;1.08;;;18.90;87.70;;;;;;5046027;28;20044;-72
2024/04/07 03:52:29;;;;;;;7.15;0.88;;;18.80;88.40;;;;;;5070260;28;20043;-73
2024/04/07 03:54:54;;;;;;;3.95;1.10;;;18.80;88.40;;;;;;5072184;28;20039;-72
2024/04/07 03:57:20;;;;;;;3.53;0.93;;;18.70;88.90;;;;;;5063247;28;20025;-70
2024/04/07 03:59:45;;;;;;;3.03;1.13;;;18.70;88.90;;;;;;5062946;28;20032;-72
2024/04/07 04:02:23;;;;;;;2.20;1.10;;;18.60;89.50;;;;;;5063114;28;20048;-73
2024/04/07 04:04:59;;;;;;;5.05;1.00;;;18.50;90.00;;;;;;5070356;28;20037;-72
2024/04/07 04:07:27;;;;;;;1.45;0.80;;;18.40;89.30;;;;;;5064885;28;20128;-72
2024/04/07 04:09:54;;;;;;;2.35;1.10;;;18.40;89.80;;;;;;5062038;28;20035;-72
2024/04/07 04:12:20;;;;;;;3.05;1.17;;;18.30;90.40;;;;;;5057053;28;20074;-71
2024/04/07 04:14:46;;;;;;;1.35;1.13;;;18.20;90.40;;;;;;5070968;28;20405;-72
2024/04/07 04:17:13;;;;;;;5.05;1.20;;;18.20;90.50;;;;;;5056306;28;20028;-72
2024/04/07 04:19:39;;;;;;;4.47;1.42;;;18.10;90.80;;;;;;5064879;28;20037;-72
2024/04/07 04:22:05;;;;;;;5.30;1.10;;;18.00;90.70;;;;;;5066392;28;20548;-71
2024/04/07 04:24:31;;;;;;;5.00;1.00;;;18.00;90.40;;;;;;5070579;28;20028;-73
2024/04/07 04:26:56;;;;;;;3.42;0.88;;;18.00;89.70;;;;;;5069259;28;20118;-71
2024/04/07 04:29:22;;;;;;;4.88;1.02;;;18.00;89.30;;;;;;5067741;28;20058;-72
2024/04/07 04:31:47;;;;;;;1.13;0.65;;;18.10;88.60;;;;;;5065648;28;20071;-70
2024/04/07 04:34:13;;;;;;;2.53;1.30;;;18.20;88.40;;;;;;5068454;28;20378;-72
2024/04/07 04:36:39;;;;;;;4.70;1.20;;;18.10;88.20;;;;;;5071046;28;20025;-74
2024/04/07 04:39:06;;;;;;;4.63;1.05;;;18.10;88.30;;;;;;5059265;28;20047;-71
2024/04/07 04:41:32;;;;;;;5.10;1.30;;;18.20;87.60;;;;;;5060987;28;20047;-67
2024/04/07 04:43:58;;;;;;;3.65;1.00;;;18.30;87.10;;;;;;5062054;28;20269;-67
2024/04/07 04:46:23;;;;;;;2.67;1.00;;;18.30;87.30;;;;;;5052239;28;20038;-68
2024/04/07 04:48:49;;;;;;;2.45;1.10;;;18.40;86.80;;;;;;5056452;28;20021;-67
2024/04/07 04:51:17;;;;;;;2.47;0.90;;;18.50;86.60;;;;;;5071022;28;20056;-68
2024/04/07 04:53:42;;;;;;;1.88;0.90;;;18.50;86.60;;;;;;5070960;28;20033;-67
2024/04/07 04:56:08;;;;;;;3.00;1.15;;;18.50;86.90;;;;;;5064002;28;20094;-67
2024/04/07 04:58:34;;;;;;;5.07;1.10;;;18.50;87.90;;;;;;5066237;28;20052;-67
2024/04/07 05:01:10;;;;;;;1.80;1.10;;;18.50;86.80;;;;;;5058404;28;20044;-66
2024/04/07 05:03:36;;;;;;;4.53;1.60;;;18.50;86.70;;;;;;5066817;28;20090;-67
2024/04/07 05:06:12;;;;;;;5.90;1.50;;;18.50;87.10;;;;;;5066942;28;20033;-68
2024/04/07 05:08:39;;;;;;;2.85;1.42;;;18.70;86.10;;;;;;5062824;28;20041;-67
2024/04/07 05:11:06;;;;;;;5.40;1.20;;;18.80;86.00;;;;;;5058014;28;20041;-68
2024/04/07 05:13:32;;;;;;;7.43;1.40;;;18.70;86.10;;;;;;5065123;28;20039;-67
2024/04/07 05:15:58;;;;;;;5.55;1.98;;;19.00;85.10;;;;;;5062783;28;20033;-67
2024/04/07 05:18:24;;;;;;;9.10;1.40;;;19.20;85.10;;;;;;5066284;28;20047;-67
2024/04/07 05:20:50;;;;;;;5.93;1.52;;;19.40;85.00;;;;;;5059677;28;20094;-67
2024/04/07 05:23:15;;;;;;;3.22;1.30;;;19.40;85.00;;;;;;5067293;28;20503;-67
2024/04/07 05:25:42;;;;;;;5.68;1.52;;;19.50;85.30;;;;;;5063234;28;20032;-68
2024/04/07 05:28:08;;;;;;;3.45;1.33;;;19.60;85.50;;;;;;5069274;28;20603;-68
2024/04/07 05:30:35;;;;;;;7.63;1.48;;;19.60;85.70;;;;;;5065666;28;20108;-68
2024/04/07 05:33:01;;;;;;;6.97;2.58;;;19.60;86.00;;;;;;5061177;28;20040;-69
2024/04/07 05:35:27;;;;;;;4.88;1.23;;;19.60;86.20;;;;;;5062388;28;20037;-68
2024/04/07 05:37:52;;;;;;;3.75;1.08;;;19.60;86.30;;;;;;5062698;28;20078;-68
2024/04/07 05:40:18;;;;;;;7.00;1.98;;;19.60;86.60;;;;;;5062803;28;20070;-68
2024/04/07 05:42:44;;;;;;;6.35;1.40;;;19.60;86.90;;;;;;5058883;28;20680;-67
2024/04/07 05:45:09;;;;;;;4.35;1.63;;;19.60;87.30;;;;;;5065861;28;20118;-68
2024/04/07 05:47:35;;;;;;;10.40;1.50;;;19.60;87.80;;;;;;5066175;28;20042;-68
2024/04/07 05:50:01;;;;;;;10.40;1.73;;;19.50;88.30;;;;;;5067930;28;20738;-67
2024/04/07 05:52:26;;;;;;;6.82;1.52;;;19.50;89.10;;;;;;5073212;28;20089;-67
2024/04/07 05:54:52;;;;;;;4.82;1.52;;;19.50;90.00;;;;;;5066366;28;20013;-67
2024/04/07 05:57:17;;;;;;;7.90;1.67;;;19.40;90.20;;;;;;5071883;28;20037;-68
2024/04/07 05:59:46;;;;;;;5.78;1.58;;;19.30;90.40;;;;;;5064053;28;20032;-68
2024/04/07 06:02:12;;;;;;;4.85;1.63;;;19.30;90.60;;;;;;5061595;28;20059;-67
2024/04/07 06:04:39;;;;;;;6.97;1.40;;;19.30;90.80;;;;;;5072679;28;20504;-69
2024/04/07 06:07:05;;;;;;;4.53;1.40;;;19.30;91.10;;;;;;5057130;28;20532;-67
2024/04/07 06:09:31;;;;;;;8.38;2.45;;;19.30;91.10;;;;;;5073554;28;20032;-67
2024/04/07 06:11:56;;;;;;;5.70;1.60;;;19.30;91.20;;;;;;5062752;28;20037;-67
2024/04/07 06:14:22;;;;;;;8.27;1.73;;;19.30;91.30;;;;;;5074858;28;20033;-68
2024/04/07 06:16:48;;;;;;;9.05;2.40;;;19.20;91.40;;;;;;5070570;28;20051;-67
2024/04/07 06:19:13;;;;;;;6.38;1.42;;;19.10;91.50;;;;;;5063714;28;20040;-67
2024/04/07 06:21:39;;;;;;;8.60;1.25;;;19.10;91.70;;;;;;5067683;28;20052;-67
2024/04/07 06:24:05;;;;;;;6.78;1.63;;;19.10;92.10;;;;;;5073832;28;20086;-68
2024/04/07 06:26:30;;;;;;;6.72;1.52;;;19.00;92.00;;;;;;5069253;28;20046;-67
2024/04/07 06:28:56;;;;;;;8.93;1.73;;;19.00;92.10;;;;;;5051367;28;20033;-69
2024/04/07 06:31:22;;;;;;;6.90;1.85;;;18.90;92.20;;;;;;5066203;28;20043;-68
2024/04/07 06:33:48;;;;;;;9.25;1.45;;;18.90;92.30;;;;;;5070411;28;20058;-69
2024/04/07 06:36:13;;;;;;;7.97;1.88;;;18.90;92.20;;;;;;5065798;28;20106;-68
2024/04/07 06:38:39;;;;;;;7.57;1.73;;;18.90;92.30;;;;;;5062989;28;20039;-67
2024/04/07 06:41:05;;;;;;;7.60;1.45;;;18.90;92.10;;;;;;5058219;28;20489;-68
2024/04/07 06:43:31;;;;;;;5.82;1.48;;;18.80;92.20;;;;;;5066811;28;20039;-68
2024/04/07 06:45:57;;;;;;;7.45;1.63;;;18.80;92.30;;;;;;5069384;28;20074;-67
2024/04/07 06:48:23;;;;;;;9.52;1.33;;;18.70;92.10;;;;;;5074846;28;20044;-68
2024/04/07 06:50:49;;;;;;;3.00;1.45;;;18.70;92.20;;;;;;5065321;28;20036;-67
2024/04/07 06:53:15;;;;;;;4.88;1.60;;;18.80;92.30;;;;;;5065723;28;20076;-68
2024/04/07 06:55:40;;;;;;;7.68;1.52;;;18.80;92.30;;;;;;5069024;28;20120;-69
2024/04/07 06:58:06;;;;;;;6.38;1.25;;;18.70;92.20;;;;;;5059740;28;20109;-68
2024/04/07 07:00:31;;;;;;;3.58;1.27;;;18.70;92.30;;;;;;5059889;28;20103;-66
2024/04/07 07:02:57;;;;;;;4.55;1.67;;;18.70;92.30;;;;;;5062345;28;20051;-67
2024/04/07 07:05:23;;;;;;;6.55;1.17;;;18.80;92.40;;;;;;5062977;28;20075;-67
2024/04/07 07:07:49;;;;;;;5.63;1.45;;;18.80;92.30;;;;;;5068793;28;20505;-69
2024/04/07 07:10:14;;;;;;;4.15;1.30;;;18.90;92.50;;;;;;5061602;28;20028;-68
2024/04/07 07:12:40;;;;;;;3.50;1.23;;;19.00;92.50;;;;;;5068118;28;20024;-67
2024/04/07 07:15:05;;;;;;;4.80;1.48;;;19.00;92.40;;;;;;5070041;28;20120;-67
2024/04/07 07:17:31;;;;;;;5.15;1.30;;;19.00;92.40;;;;;;5060201;28;20067;-69
2024/04/07 07:19:57;;;;;;;4.90;1.27;;;19.00;92.40;;;;;;5068169;28;20049;-67
2024/04/07 07:22:22;;;;;;;4.93;1.60;;;19.10;92.40;;;;;;5070402;28;20083;-69
2024/04/07 07:24:48;;;;;;;5.22;1.13;;;19.00;92.40;;;;;;5070187;28;20573;-67
2024/04/07 07:27:14;;;;;;;4.65;1.60;;;19.10;92.40;;;;;;5063779;28;20051;-68
2024/04/07 07:29:39;;;;;;;8.13;1.08;;;19.10;92.40;;;;;;5063080;28;20040;-68
2024/04/07 07:32:06;;;;;;;9.30;1.35;;;19.10;92.40;;;;;;5066541;28;20071;-69
2024/04/07 07:34:32;;;;;;;5.97;1.45;;;19.10;92.50;;;;;;5076782;28;20040;-67
2024/04/07 07:36:58;;;;;;;6.75;1.27;;;19.10;92.10;;;;;;5074795;28;20035;-67
2024/04/07 07:39:24;;;;;;;6.45;1.30;;;19.20;92.20;;;;;;5070681;28;20100;-67
2024/04/07 07:41:49;;;;;;;4.03;0.88;;;19.20;92.20;;;;;;5069439;28;20036;-67
2024/04/07 07:44:15;;;;;;;3.47;0.95;;;19.30;92.00;;;;;;5065897;28;20043;-68
2024/04/07 07:46:40;;;;;;;2.65;0.95;;;19.40;92.10;;;;;;5074688;28;20449;-67
2024/04/07 07:49:06;;;;;;;6.25;1.58;;;19.50;92.00;;;;;;5069177;28;20028;-67
2024/04/07 07:51:32;;;;;;;5.07;1.45;;;19.50;92.10;;;;;;5072852;28;20028;-69
2024/04/07 07:53:58;;;;;;;4.15;0.90;;;19.50;91.70;;;;;;5065443;28;20563;-66
2024/04/07 07:56:23;;;;;;;2.08;0.73;;;19.60;92.00;;;;;;5074596;28;20043;-68
2024/04/07 07:58:50;;;;;;;7.25;1.10;;;19.70;92.00;;;;;;5070061;28;20417;-67
2024/04/07 08:01:16;;;;;;;1.27;1.00;;;19.80;91.90;;;;;;5063895;28;20032;-67
2024/04/07 08:03:42;;;;;;;4.72;0.90;;;19.80;91.80;;;;;;5074541;28;20029;-68
2024/04/07 08:06:07;;;;;;;3.22;0.80;;;19.90;91.70;;;;;;5068936;28;20028;-66
2024/04/07 08:08:33;;;;;;;4.45;0.82;;;20.00;91.50;;;;;;5069928;28;20039;-67
2024/04/07 08:10:58;;;;;;;5.30;0.70;;;20.00;90.60;;;;;;5069002;28;20028;-67
2024/04/07 08:13:24;;;;;;;4.25;0.82;;;20.00;90.40;;;;;;5070952;28;20028;-68
2024/04/07 08:15:50;;;;;;;2.63;0.70;;;20.10;90.40;;;;;;5067460;28;20081;-67
2024/04/07 08:18:16;;;;;;;2.33;0.60;;;20.20;90.80;;;;;;5071304;28;20085;-67
2024/04/07 08:20:43;;;;;;;3.63;0.90;;;20.10;90.20;;;;;;5068180;28;20085;-68
2024/04/07 08:23:10;;;;;;;3.00;0.77;;;20.10;90.30;;;;;;5069051;28;20040;-67
2024/04/07 08:25:36;;;;;;;3.08;0.70;;;20.20;90.30;;;;;;5041142;28;20040;-68
2024/04/07 08:28:04;;;;;;;3.55;0.80;;;20.20;90.40;;;;;;5061272;28;20033;-67
2024/04/07 08:30:30;;;;;;;2.40;0.70;;;20.20;90.20;;;;;;5066488;28;20400;-67
2024/04/07 08:32:55;;;;;;;4.03;0.70;;;20.20;90.10;;;;;;5068290;28;20044;-66
2024/04/07 08:35:21;;;;;;;4.38;0.93;;;20.20;90.00;;;;;;5073297;28;20051;-67
2024/04/07 08:37:47;;;;;;;1.52;0.52;;;20.00;90.00;;;;;;5062478;28;20489;-68
2024/04/07 08:40:12;;;;;;;4.43;0.75;;;20.00;90.30;;;;;;5070985;28;20078;-68
2024/04/07 08:42:40;;;;;;;4.05;1.00;;;20.10;90.20;;;;;;5066738;28;20046;-70
2024/04/07 08:45:07;;;;;;;2.25;0.98;;;20.10;90.20;;;;;;5061578;28;20033;-69
2024/04/07 08:47:36;;;;;;;2.53;0.68;;;20.10;90.40;;;;;;5061396;28;20036;-67
2024/04/07 08:50:05;;;;;;;1.40;0.50;;;20.10;90.50;;;;;;5063382;28;20044;-67
2024/04/07 08:52:31;;;;;;;4.18;0.68;;;20.10;90.40;;;;;;5061637;28;20405;-67
2024/04/07 08:54:58;;;;;;;3.28;0.55;;;20.00;90.50;;;;;;5068809;28;20043;-67
2024/04/07 08:57:24;;;;;;;3.03;0.80;;;20.00;90.40;;;;;;5068479;28;20036;-68
2024/04/07 08:59:52;;;;;;;3.25;0.82;;;20.00;90.60;;;;;;5072391;28;20032;-67
2024/04/07 09:02:18;;;;;;;3.42;0.65;;;20.00;90.60;;;;;;5068823;28;20042;-69
2024/04/07 09:04:44;;;;;;;1.23;0.50;;;20.10;90.70;;;;;;5066861;28;20028;-67
2024/04/07 09:07:11;;;;;;;2.88;0.60;;;20.10;90.60;;;;;;5070584;28;20032;-67
2024/04/07 09:09:37;;;;;;;3.50;0.95;;;20.10;90.40;;;;;;5063856;28;20151;-67
2024/04/07 09:12:04;;;;;;;5.30;0.82;;;20.00;90.40;;;;;;5071505;28;20059;-68
2024/04/07 09:14:32;;;;;;;1.75;1.25;;;20.10;90.00;;;;;;5066248;28;20459;-67
2024/04/07 09:17:06;;;;;;;3.22;0.80;;;20.20;90.30;;;;;;5064665;28;20113;-67
2024/04/07 09:19:36;;;;;;;2.45;0.70;;;20.10;90.10;;;;;;5061465;28;20054;-67
2024/04/07 09:22:03;;;;;;;1.92;0.70;;;20.20;90.10;;;;;;5061551;28;20679;-67
2024/04/07 09:24:30;;;;;;;0.93;0.50;;;20.20;89.30;;;;;;5067483;28;20043;-67
2024/04/07 09:27:05;;;;;;;4.28;0.80;;;20.20;89.60;;;;;;5057374;28;20041;-67
2024/04/07 09:29:31;;;;;;;3.13;0.80;;;20.20;89.30;;;;;;5058758;28;20043;-67
2024/04/07 09:31:58;;;;;;;3.88;1.02;;;20.20;89.40;;;;;;5057001;28;20033;-67
2024/04/07 09:34:24;;;;;;;2.38;0.90;;;20.30;89.20;;;;;;5061768;28;20520;-67
2024/04/07 09:36:50;;;;;;;4.40;0.75;;;20.30;89.40;;;;;;5060195;28;20063;-68
2024/04/07 09:39:16;;;;;;;2.30;0.90;;;20.40;89.50;;;;;;5043825;28;20033;-67
2024/04/07 09:41:47;;;;;;;5.15;1.10;;;20.60;89.10;;;;;;5058304;28;20167;-68
2024/04/07 09:44:18;;;;;;;4.43;1.50;;;20.70;89.30;;;;;;5066396;28;20117;-67
2024/04/07 09:46:45;;;;;;;4.82;1.23;;;20.80;88.80;;;;;;5059117;28;20056;-67
2024/04/07 09:49:11;;;;;;;2.30;1.53;;;20.90;88.60;;;;;;5071809;28;20294;-67
2024/04/07 09:51:43;;;;;;;2.30;1.20;;;21.00;89.30;;;;;;5063340;28;20032;-67
2024/04/07 09:54:18;;;;;;;5.05;1.50;;;21.20;89.40;;;;;;5056584;28;20044;-67
2024/04/07 09:56:44;;;;;;;3.15;1.27;;;21.20;88.20;;;;;;5059008;28;20072;-68
2024/04/07 09:59:10;;;;;;;4.68;1.40;;;21.30;87.80;;;;;;5057291;28;20129;-67
2024/04/07 10:01:37;;;;;;;5.45;1.10;;;21.50;88.30;;;;;;5065258;28;20127;-67
2024/04/07 10:04:03;;;;;;;6.53;1.33;;;21.60;88.10;;;;;;5056630;28;20040;-68
2024/04/07 10:06:30;;;;;;;3.28;1.30;;;21.70;88.70;;;;;;5060109;28;20027;-68
2024/04/07 10:08:56;;;;;;;5.47;1.55;;;21.80;88.30;;;;;;5063148;28;20033;-68
2024/04/07 10:11:21;;;;;;;4.45;1.38;;;22.10;87.40;;;;;;5067436;28;20047;-67
2024/04/07 10:13:48;;;;;;;6.97;1.80;;;22.20;87.50;;;;;;5063446;28;20040;-66
2024/04/07 10:16:14;;;;;;;10.43;2.65;;;22.20;86.30;;;;;;5059493;28;20037;-68
2024/04/07 10:18:41;;;;;;;6.05;2.15;;;22.40;88.00;;;;;;5066038;28;20013;-67
2024/04/07 10:21:07;;;;;;;5.75;1.73;;;22.70;87.30;;;;;;5056252;28;20033;-68
2024/04/07 10:23:37;;;;;;;5.78;1.13;;;23.00;85.50;;;;;;5059721;28;20122;-67
2024/04/07 10:26:05;;;;;;;6.45;0.95;;;23.20;84.90;;;;;;5060062;28;20565;-68
2024/04/07 10:28:48;;;;;;;12.15;1.45;;;23.70;86.10;;;;;;5061123;28;20091;-67
2024/04/07 10:31:36;;;;;;;4.85;1.23;;;24.10;83.10;;;;;;5070011;28;20683;-67
2024/04/07 10:34:02;;;;;;;9.82;1.90;;;24.10;83.20;;;;;;5061624;28;20064;-67
2024/04/07 10:36:31;;;;;;;4.55;1.60;;;24.30;83.40;;;;;;5072947;28;20055;-67
2024/04/07 10:38:57;;;;;;;5.10;1.00;;;24.30;82.50;;;;;;5059337;28;20049;-68
2024/04/07 10:41:31;;;;;;;6.88;1.17;;;24.80;82.50;;;;;;5064798;28;20041;-67
2024/04/07 10:43:59;;;;;;;3.90;1.33;;;25.10;81.30;;;;;;5059954;28;20036;-67
2024/04/07 10:46:25;;;;;;;6.35;1.20;;;25.50;82.50;;;;;;5061114;28;20663;-67
2024/04/07 10:48:52;;;;;;;4.10;1.30;;;25.80;80.30;;;;;;5066497;28;20032;-67
2024/04/07 10:51:19;;;;;;;3.60;1.25;;;25.80;81.10;;;;;;5057598;28;20127;-67
2024/04/07 10:53:46;;;;;;;2.97;1.38;;;26.10;79.10;;;;;;5064150;28;20044;-67
2024/04/07 10:56:12;;;;;;;6.40;1.10;;;26.00;80.90;;;;;;5069927;28;20040;-63
2024/04/07 10:58:39;;;;;;;3.60;1.50;;;26.30;79.00;;;;;;5069137;28;20044;-67
2024/04/07 11:01:05;;;;;;;2.05;0.90;;;26.10;78.80;;;;;;5063208;28;20575;-67
2024/04/07 11:03:33;;;;;;;6.72;1.15;;;26.20;78.40;;;;;;5070140;28;20109;-67
2024/04/07 11:06:00;;;;;;;2.67;1.15;;;26.20;79.00;;;;;;5063977;28;20120;-66
2024/04/07 11:08:27;;;;;;;5.43;1.20;;;26.10;77.70;;;;;;5059108;28;20531;-65
2024/04/07 11:10:53;;;;;;;3.00;1.10;;;26.10;77.40;;;;;;5061897;28;20734;-65
2024/04/07 11:13:19;;;;;;;3.45;1.00;;;26.10;78.20;;;;;;5067133;28;20036;-65
2024/04/07 11:15:49;;;;;;;3.30;0.80;;;25.70;77.30;;;;;;5057104;28;20111;-70
2024/04/07 11:18:17;;;;;;;3.30;1.10;;;25.80;77.40;;;;;;5062574;28;20124;-67
2024/04/07 11:20:43;;;;;;;2.80;1.00;;;25.50;76.70;;;;;;5058790;28;20036;-67
2024/04/07 11:23:09;;;;;;;2.60;1.08;;;25.70;78.80;;;;;;5063064;28;20044;-67
2024/04/07 11:25:36;;;;;;;3.33;0.90;;;26.00;75.50;;;;;;5066208;28;20032;-67
2024/04/07 11:28:07;;;;;;;6.22;0.68;;;26.20;75.00;;;;;;5066524;28;20037;-67
2024/04/07 11:30:44;;;;;;;1.67;0.95;;;26.30;73.50;;;;;;5059414;28;20031;-67
2024/04/07 11:33:10;;;;;;;1.75;0.63;;;26.20;74.40;;;;;;5062468;28;20057;-68
2024/04/07 11:35:40;;;;;;;4.70;1.00;;;26.10;73.80;;;;;;5045363;28;20458;-67
2024/04/07 11:38:06;;;;;;;2.40;0.80;;;25.80;73.20;;;;;;5061511;28;20053;-67
2024/04/07 11:40:32;;;;;;;3.97;0.90;;;25.60;74.10;;;;;;5056802;28;20040;-66
2024/04/07 11:42:58;;;;;;;5.35;1.05;;;25.60;75.80;;;;;;5060806;28;20541;-66
2024/04/07 11:45:25;;;;;;;6.07;0.93;;;25.60;73.70;;;;;;5064007;28;20028;-66
2024/04/07 11:47:51;;;;;;;4.55;0.95;;;25.60;73.40;;;;;;5069852;28;20514;-66
2024/04/07 11:50:17;;;;;;;1.10;0.60;;;25.50;72.40;;;;;;5069114;28;20062;-68
2024/04/07 11:52:43;;;;;;;3.63;0.68;;;25.30;72.40;;;;;;5047352;28;20633;-67
2024/04/07 11:55:08;;;;;;;2.80;0.60;;;25.30;70.90;;;;;;5066124;28;20043;-67
2024/04/07 11:57:35;;;;;;;2.78;0.70;;;25.50;71.20;;;;;;5060225;28;20029;-67
2024/04/07 12:00:00;;;;;;;4.10;0.70;;;25.40;70.40;;;;;;5065748;28;20043;-67
2024/04/07 12:02:26;;;;;;;1.95;0.80;;;25.60;71.00;;;;;;5061577;28;20056;-67
2024/04/07 12:04:52;;;;;;;1.52;0.82;;;25.60;69.90;;;;;;5060662;28;20045;-67
2024/04/07 12:07:19;;;;;;;2.28;0.70;;;25.90;71.40;;;;;;5069681;28;20028;-68
2024/04/07 12:09:44;;;;;;;0.93;0.45;;;25.90;71.00;;;;;;5061003;28;20052;-64
2024/04/07 12:12:10;;;;;;;0.95;0.50;;;26.10;70.20;;;;;;5068606;28;20052;-67
2024/04/07 12:14:36;;;;;;;1.50;0.60;;;26.30;70.60;;;;;;5063753;28;20036;-68
2024/04/07 12:17:02;;;;;;;3.30;0.57;;;26.80;70.40;;;;;;5066965;28;20059;-68
2024/04/07 12:19:28;;;;;;;2.92;0.68;;;27.10;70.50;;;;;;5069837;28;20040;-67
2024/04/07 12:21:53;;;;;;;15.20;2.63;;;28.00;70.20;;;;;;5065484;28;20033;-69
2024/04/07 12:24:19;;;;;;;5.15;0.70;;;28.00;66.40;;;;;;5068592;28;20127;-68
2024/04/07 12:26:46;;;;;;;3.28;0.90;;;28.20;65.60;;;;;;5065083;28;20044;-68
2024/04/07 12:29:12;;;;;;;1.75;0.50;;;28.50;67.80;;;;;;5064792;28;20036;-68
2024/04/07 12:31:38;;;;;;;3.10;1.38;;;28.80;65.10;;;;;;5065812;28;20039;-67
2024/04/07 12:34:05;;;;;;;3.05;0.88;;;29.00;64.20;;;;;;5059281;28;20120;-68
2024/04/07 12:36:32;;;;;;;1.87;0.70;;;29.10;63.00;;;;;;5063957;28;20131;-68
2024/04/07 12:39:04;;;;;;;3.17;1.05;;;29.00;63.30;;;;;;5060917;28;20116;-69
2024/04/07 12:41:30;;;;;;;1.17;0.52;;;28.90;62.30;;;;;;5053014;28;20049;-69
2024/04/07 12:43:55;;;;;;;1.10;0.50;;;28.50;61.00;;;;;;5061277;28;20691;-69